createdAt,value
2019-02-26T00:01:26.224Z,4.40
2019-02-26T00:03:55.114Z,5.17
2019-02-26T00:06:25.375Z,10.60
2019-02-26T00:08:56.617Z,5.13
2019-02-26T00:11:28.315Z,5.20
2019-02-26T00:13:57.322Z,5.57
2019-02-26T00:16:27.446Z,5.40
2019-02-26T00:19:00.621Z,5.77
2019-02-26T00:21:29.279Z,7.37
2019-02-26T00:23:57.804Z,4.97
2019-02-26T00:26:26.974Z,4.70
2019-02-26T00:28:57.329Z,5.03
2019-02-26T00:31:28.286Z,4.20
2019-02-26T00:33:57.522Z,6.50
2019-02-26T00:36:27.126Z,6.37
2019-02-26T00:38:58.455Z,5.17
2019-02-26T00:41:29.068Z,5.43
2019-02-26T00:43:59.941Z,4.17
2019-02-26T00:46:30.209Z,4.47
2019-02-26T00:49:01.347Z,5.37
2019-02-26T00:51:31.212Z,5.13
2019-02-26T00:54:01.841Z,6.67
2019-02-26T00:56:31.632Z,5.17
2019-02-26T00:59:01.374Z,6.43
2019-02-26T01:01:30.598Z,5.20
2019-02-26T01:03:59.710Z,8.60
2019-02-26T01:06:31.038Z,7.57
2019-02-26T01:09:01.971Z,5.50
2019-02-26T01:11:30.959Z,6.83
2019-02-26T01:13:59.963Z,6.10
2019-02-26T01:16:29.449Z,6.73
2019-02-26T01:18:58.286Z,6.17
2019-02-26T01:21:29.118Z,7.87
2019-02-26T01:23:59.597Z,7.67
2019-02-26T01:26:28.595Z,7.10
2019-02-26T01:28:58.660Z,5.60
2019-02-26T01:31:29.283Z,7.20
2019-02-26T01:33:59.194Z,6.57
2019-02-26T01:36:28.884Z,7.67
2019-02-26T01:38:57.830Z,6.73
2019-02-26T01:41:27.387Z,10.73
2019-02-26T01:43:56.413Z,7.93
2019-02-26T01:46:25.333Z,6.00
2019-02-26T01:48:55.268Z,6.90
2019-02-26T01:51:26.152Z,8.87
2019-02-26T01:53:56.473Z,7.83
2019-02-26T01:56:25.473Z,5.77
2019-02-26T01:58:56.889Z,6.80
2019-02-26T02:01:26.181Z,6.17
2019-02-26T02:03:56.219Z,7.57
2019-02-26T02:06:25.430Z,7.90
2019-02-26T02:08:55.757Z,6.13
2019-02-26T02:11:28.434Z,5.90
2019-02-26T02:13:56.068Z,5.33
2019-02-26T02:16:27.263Z,8.50
2019-02-26T02:18:57.579Z,6.57
2019-02-26T02:21:30.412Z,6.03
2019-02-26T02:23:57.379Z,7.80
2019-02-26T02:26:26.384Z,7.20
2019-02-26T02:28:55.568Z,6.87
2019-02-26T02:31:25.114Z,5.97
2019-02-26T02:33:55.342Z,7.20
2019-02-26T02:36:26.399Z,5.80
2019-02-26T02:38:54.830Z,8.90
2019-02-26T02:41:23.754Z,6.80
2019-02-26T02:43:52.605Z,11.37
2019-02-26T02:46:21.437Z,6.50
2019-02-26T02:48:50.294Z,6.00
2019-02-26T02:51:19.476Z,6.07
2019-02-26T02:53:50.622Z,6.80
2019-02-26T02:56:19.232Z,6.37
2019-02-26T02:58:51.040Z,6.73
2019-02-26T03:01:22.278Z,6.33
2019-02-26T03:03:53.113Z,9.03
2019-02-26T03:06:21.362Z,7.27
2019-02-26T03:08:51.054Z,8.93
2019-02-26T03:11:21.577Z,9.07
2019-02-26T03:13:51.260Z,5.83
2019-02-26T03:16:23.431Z,7.30
2019-02-26T03:18:52.019Z,6.13
2019-02-26T03:21:22.095Z,7.90
2019-02-26T03:23:51.613Z,8.77
2019-02-26T03:26:22.836Z,10.40
2019-02-26T03:28:53.293Z,7.80
2019-02-26T03:31:28.546Z,12.30
2019-02-26T03:34:00.054Z,7.80
2019-02-26T03:36:23.534Z,7.47
2019-02-26T03:38:54.802Z,5.83
2019-02-26T03:41:25.708Z,9.90
2019-02-26T03:43:54.448Z,8.53
2019-02-26T03:46:25.078Z,8.50
2019-02-26T03:48:53.933Z,8.27
2019-02-26T03:51:23.181Z,7.80
2019-02-26T03:53:52.419Z,8.07
2019-02-26T03:56:21.601Z,10.13
2019-02-26T03:58:54.478Z,9.73
2019-02-26T04:01:21.645Z,8.20
2019-02-26T04:03:51.097Z,8.43
2019-02-26T04:06:20.011Z,7.10
2019-02-26T04:08:51.025Z,6.33
2019-02-26T04:11:22.048Z,9.87
2019-02-26T04:13:52.169Z,8.33
2019-02-26T04:16:21.273Z,9.57
2019-02-26T04:18:51.990Z,12.23
2019-02-26T04:21:21.335Z,8.53
2019-02-26T04:23:51.529Z,7.20
2019-02-26T04:27:05.306Z,9.57
2019-02-26T04:29:55.801Z,9.73
2019-02-26T04:33:07.228Z,8.10
2019-02-26T04:35:55.505Z,12.97
2019-02-26T04:38:39.458Z,9.93
2019-02-26T04:41:22.989Z,11.13
2019-02-26T04:44:55.190Z,9.67
2019-02-26T04:47:30.802Z,8.10
2019-02-26T04:50:00.538Z,10.43
2019-02-26T04:52:32.289Z,10.67
2019-02-26T04:55:01.471Z,8.13
2019-02-26T04:57:30.578Z,11.20
2019-02-26T05:00:01.364Z,8.43
2019-02-26T05:02:31.035Z,10.47
2019-02-26T05:05:00.230Z,15.50
2019-02-26T05:07:29.544Z,9.57
2019-02-26T05:09:59.360Z,8.70
2019-02-26T05:12:31.610Z,10.70
2019-02-26T05:14:59.733Z,10.50
2019-02-26T05:17:30.793Z,11.20
2019-02-26T05:19:59.577Z,9.23
2019-02-26T05:22:31.035Z,9.60
2019-02-26T05:24:59.005Z,9.30
2019-02-26T05:27:28.145Z,9.87
2019-02-26T05:29:57.014Z,14.00
2019-02-26T05:32:29.365Z,12.27
2019-02-26T05:34:56.526Z,14.30
2019-02-26T05:37:28.879Z,13.23
2019-02-26T05:39:56.554Z,13.30
2019-02-26T05:42:25.696Z,13.03
2019-02-26T05:44:56.705Z,12.17
2019-02-26T05:47:26.690Z,12.30
2019-02-26T05:49:55.961Z,17.20
2019-02-26T05:52:27.239Z,12.40
2019-02-26T05:54:55.483Z,13.00
2019-02-26T05:57:27.738Z,11.90
2019-02-26T05:59:54.931Z,13.90
2019-02-26T06:02:24.663Z,11.20
2019-02-26T06:04:53.955Z,11.17
2019-02-26T06:07:25.108Z,13.53
2019-02-26T06:09:56.438Z,16.07
2019-02-26T06:12:25.453Z,14.77
2019-02-26T06:14:57.548Z,11.13
2019-02-26T06:17:24.906Z,14.90
2019-02-26T06:19:57.035Z,15.90
2019-02-26T06:22:27.204Z,18.23
2019-02-26T06:24:59.501Z,14.73
2019-02-26T06:27:27.698Z,15.13
2019-02-26T06:29:58.129Z,18.00
2019-02-26T06:32:30.011Z,13.50
2019-02-26T06:34:58.222Z,15.70
2019-02-26T06:37:29.074Z,14.73
2019-02-26T06:39:59.898Z,14.20
2019-02-26T06:42:28.852Z,15.17
2019-02-26T06:44:58.903Z,12.37
2019-02-26T06:47:29.141Z,14.90
2019-02-26T06:49:58.923Z,17.07
2019-02-26T06:52:29.932Z,18.50
2019-02-26T06:55:00.109Z,20.50
2019-02-26T06:57:29.200Z,14.57
2019-02-26T07:00:01.020Z,18.80
2019-02-26T07:02:29.144Z,16.87
2019-02-26T07:04:58.163Z,12.60
2019-02-26T07:07:27.201Z,14.80
2019-02-26T07:09:58.051Z,17.20
2019-02-26T07:12:27.439Z,19.70
2019-02-26T07:14:58.066Z,17.27
2019-02-26T07:17:31.904Z,16.33
2019-02-26T07:19:59.918Z,16.10
2019-02-26T07:22:28.739Z,16.30
2019-02-26T07:24:57.700Z,22.13
2019-02-26T07:27:28.689Z,23.70
2019-02-26T07:29:57.951Z,18.60
2019-02-26T07:32:27.178Z,20.77
2019-02-26T07:34:58.025Z,21.50
2019-02-26T07:37:28.639Z,18.60
2019-02-26T07:39:57.455Z,18.50
2019-02-26T07:42:26.346Z,18.93
2019-02-26T07:44:55.195Z,34.43
2019-02-26T07:47:24.784Z,22.07
2019-02-26T07:49:56.522Z,16.87
2019-02-26T07:52:26.524Z,19.47
2019-02-26T07:54:56.350Z,18.80
2019-02-26T07:57:27.573Z,18.93
2019-02-26T07:59:56.446Z,18.30
2019-02-26T08:02:26.056Z,15.50
2019-02-26T08:04:56.013Z,14.77
2019-02-26T08:07:26.724Z,14.63
2019-02-26T08:09:56.200Z,13.50
2019-02-26T08:12:25.399Z,18.07
2019-02-26T08:14:54.284Z,16.73
2019-02-26T08:17:23.797Z,21.53
2019-02-26T08:19:52.994Z,13.97
2019-02-26T08:22:22.197Z,19.70
2019-02-26T08:24:52.862Z,26.30
2019-02-26T08:27:22.127Z,18.47
2019-02-26T08:29:51.712Z,16.63
2019-02-26T08:32:24.063Z,17.00
2019-02-26T08:34:53.205Z,21.33
2019-02-26T08:37:22.161Z,13.77
2019-02-26T08:39:51.298Z,15.43
2019-02-26T08:42:20.599Z,14.70
2019-02-26T08:44:51.211Z,17.50
2019-02-26T08:47:21.207Z,14.90
2019-02-26T08:49:50.965Z,12.50
2019-02-26T08:52:22.717Z,13.73
2019-02-26T08:54:51.101Z,13.10
2019-02-26T08:57:20.030Z,12.57
2019-02-26T08:59:49.671Z,11.23
2019-02-26T09:02:19.816Z,14.60
2019-02-26T09:04:49.427Z,13.93
2019-02-26T09:07:19.543Z,12.00
2019-02-26T09:09:50.121Z,11.83
2019-02-26T09:12:19.842Z,12.37
2019-02-26T09:14:50.819Z,12.50
2019-02-26T09:17:23.183Z,18.67
2019-02-26T09:19:50.925Z,12.63
2019-02-26T09:22:21.657Z,10.57
2019-02-26T09:24:52.053Z,13.13
2019-02-26T09:27:24.344Z,12.60
2019-02-26T09:29:53.302Z,19.53
2019-02-26T09:32:22.486Z,11.00
2019-02-26T09:34:52.097Z,11.60
2019-02-26T09:37:22.150Z,11.40
2019-02-26T09:39:52.065Z,11.53
2019-02-26T09:42:23.304Z,11.87
2019-02-26T09:44:53.119Z,11.07
2019-02-26T09:47:32.841Z,14.83
2019-02-26T09:50:00.335Z,14.27
2019-02-26T09:52:30.319Z,11.67
2019-02-26T09:54:59.948Z,12.20
2019-02-26T09:57:28.864Z,16.47
2019-02-26T10:00:00.083Z,11.70
2019-02-26T10:02:28.955Z,10.83
2019-02-26T10:04:58.134Z,13.17
2019-02-26T10:07:28.558Z,14.27
2019-02-26T10:09:59.840Z,12.97
2019-02-26T10:12:29.887Z,13.47
2019-02-26T10:15:02.470Z,11.90
2019-02-26T10:17:30.337Z,13.17
2019-02-26T10:20:01.594Z,13.80
2019-02-26T10:22:33.321Z,13.50
2019-02-26T10:25:01.247Z,12.37
2019-02-26T10:27:33.646Z,16.57
2019-02-26T10:30:02.922Z,19.80
2019-02-26T10:32:32.839Z,14.80
2019-02-26T10:35:01.918Z,16.40
2019-02-26T10:37:31.899Z,14.13
2019-02-26T10:40:02.051Z,14.13
2019-02-26T10:42:39.590Z,12.53
2019-02-26T10:45:02.005Z,14.80
2019-02-26T10:47:32.705Z,17.07
2019-02-26T10:50:01.532Z,19.07
2019-02-26T10:52:30.747Z,16.67
2019-02-26T10:55:00.145Z,21.00
2019-02-26T10:57:31.086Z,16.83
2019-02-26T11:00:02.573Z,15.30
2019-02-26T11:02:31.006Z,15.33
2019-02-26T11:04:59.963Z,20.53
2019-02-26T11:07:31.726Z,15.53
2019-02-26T11:09:59.633Z,15.77
2019-02-26T11:12:30.810Z,16.03
2019-02-26T11:15:01.593Z,17.43
2019-02-26T11:17:31.614Z,16.33
2019-02-26T11:20:01.298Z,14.80
2019-02-26T11:22:31.752Z,18.53
2019-02-26T11:25:01.471Z,14.57
2019-02-26T11:27:30.858Z,17.40
2019-02-26T11:30:01.792Z,18.43
2019-02-26T11:32:32.523Z,17.17
2019-02-26T11:35:02.506Z,16.23
2019-02-26T11:37:52.351Z,16.10
2019-02-26T11:40:23.036Z,20.10
2019-02-26T11:42:52.982Z,15.23
2019-02-26T11:45:22.221Z,15.87
2019-02-26T11:47:51.505Z,18.00
2019-02-26T11:50:21.538Z,17.30
2019-02-26T11:52:54.284Z,17.60
2019-02-26T11:55:23.557Z,16.80
2019-02-26T11:57:53.085Z,19.53
2019-02-26T12:01:01.037Z,19.70
2019-02-26T12:03:33.201Z,19.00
2019-02-26T12:06:02.086Z,18.20
2019-02-26T12:08:31.556Z,18.80
2019-02-26T12:11:03.556Z,20.13
2019-02-26T12:13:31.727Z,18.43
2019-02-26T12:16:00.607Z,18.13
2019-02-26T12:18:29.658Z,21.60
2019-02-26T12:21:00.132Z,22.13
2019-02-26T12:23:29.561Z,19.17
2019-02-26T12:26:01.092Z,21.07
2019-02-26T12:28:31.761Z,20.13
2019-02-26T12:31:01.275Z,17.03
2019-02-26T12:33:32.557Z,22.87
2019-02-26T12:36:02.567Z,22.50
2019-02-26T12:38:36.449Z,20.60
2019-02-26T12:41:02.874Z,18.40
2019-02-26T12:43:33.313Z,19.00
2019-02-26T12:46:04.762Z,21.37
2019-02-26T12:48:35.170Z,25.20
2019-02-26T12:51:05.345Z,19.77
2019-02-26T12:53:46.810Z,21.07
2019-02-26T12:56:15.424Z,18.13
2019-02-26T12:58:45.233Z,17.40
2019-02-26T13:01:15.075Z,18.77
2019-02-26T13:03:47.296Z,18.47
2019-02-26T13:06:18.885Z,20.53
2019-02-26T13:08:47.667Z,16.87
2019-02-26T13:11:18.309Z,23.03
2019-02-26T13:13:50.195Z,17.97
2019-02-26T13:16:19.238Z,20.93
2019-02-26T13:18:51.233Z,23.27
2019-02-26T13:21:18.897Z,21.33
2019-02-26T13:23:48.060Z,21.83
2019-02-26T13:26:19.534Z,23.03
2019-02-26T13:28:52.715Z,23.03
2019-02-26T13:31:22.475Z,19.47
2019-02-26T13:33:50.230Z,18.17
2019-02-26T13:36:19.236Z,19.03
2019-02-26T13:38:49.306Z,19.70
2019-02-26T13:41:29.524Z,22.90
2019-02-26T13:43:50.565Z,23.20
2019-02-26T13:46:19.569Z,24.03
2019-02-26T13:48:48.745Z,19.30
2019-02-26T13:51:17.673Z,18.30
2019-02-26T13:53:46.794Z,18.37
2019-02-26T13:56:15.649Z,21.57
2019-02-26T13:58:44.592Z,19.50
2019-02-26T14:01:13.811Z,17.67
2019-02-26T14:03:42.979Z,20.13
2019-02-26T14:06:12.062Z,23.93
2019-02-26T14:08:41.301Z,17.80
2019-02-26T14:11:10.429Z,20.07
2019-02-26T14:13:39.389Z,17.87
2019-02-26T14:16:08.318Z,24.40
2019-02-26T14:18:37.700Z,25.43
2019-02-26T14:21:06.778Z,23.83
2019-02-26T14:23:35.878Z,18.70
2019-02-26T14:26:05.302Z,21.53
2019-02-26T14:28:34.291Z,27.70
2019-02-26T14:31:03.287Z,19.07
2019-02-26T14:33:32.349Z,19.20
2019-02-26T14:36:01.562Z,17.97
2019-02-26T14:38:30.801Z,24.93
2019-02-26T14:41:00.142Z,22.00
2019-02-26T14:43:30.139Z,20.03
2019-02-26T14:45:59.690Z,21.10
2019-02-26T14:48:28.690Z,19.43
2019-02-26T14:50:57.986Z,17.93
2019-02-26T14:53:27.669Z,17.87
2019-02-26T14:55:57.068Z,14.53
2019-02-26T14:58:26.046Z,12.60
2019-02-26T15:00:58.189Z,15.70
2019-02-26T15:03:26.892Z,12.57
2019-02-26T15:05:56.550Z,14.40
2019-02-26T15:08:25.917Z,14.33
2019-02-26T15:10:54.887Z,13.00
2019-02-26T15:13:25.457Z,12.23
2019-02-26T15:15:54.618Z,11.90
2019-02-26T15:18:23.498Z,13.60
2019-02-26T15:20:53.578Z,13.83
2019-02-26T15:23:23.205Z,16.20
2019-02-26T15:25:52.195Z,13.17
2019-02-26T15:28:32.761Z,14.93
2019-02-26T15:31:01.786Z,14.73
2019-02-26T15:33:30.895Z,18.43
2019-02-26T15:36:00.262Z,15.70
2019-02-26T15:38:29.552Z,14.93
2019-02-26T15:40:58.406Z,14.53
2019-02-26T15:43:27.395Z,16.37
2019-02-26T15:45:57.721Z,13.40
2019-02-26T15:48:27.159Z,14.53
2019-02-26T15:50:56.734Z,17.13
2019-02-26T15:53:26.165Z,16.70
2019-02-26T15:55:59.179Z,15.37
2019-02-26T15:58:26.507Z,17.30
2019-02-26T16:00:55.542Z,14.40
2019-02-26T16:03:24.576Z,14.90
2019-02-26T16:05:54.083Z,15.37
2019-02-26T16:08:23.162Z,24.53
2019-02-26T16:10:52.591Z,18.37
2019-02-26T16:13:21.583Z,20.70
2019-02-26T16:15:51.016Z,26.33
2019-02-26T16:18:20.306Z,17.13
2019-02-26T16:20:49.369Z,18.73
2019-02-26T16:23:19.011Z,19.90
2019-02-26T16:25:48.483Z,19.50
2019-02-26T16:28:19.302Z,23.87
2019-02-26T16:30:48.399Z,20.07
2019-02-26T16:33:19.112Z,35.47
2019-02-26T16:35:48.642Z,21.50
2019-02-26T16:38:19.359Z,18.83
2019-02-26T16:40:49.000Z,23.70
2019-02-26T16:43:18.122Z,21.10
2019-02-26T16:45:47.106Z,19.40
2019-02-26T16:48:16.727Z,22.60
2019-02-26T16:50:46.130Z,23.07
2019-02-26T16:53:16.220Z,25.30
2019-02-26T16:55:48.507Z,18.90
2019-02-26T16:58:17.311Z,18.03
2019-02-26T17:00:46.560Z,21.10
2019-02-26T17:03:16.954Z,17.60
2019-02-26T17:05:47.691Z,20.13
2019-02-26T17:08:16.995Z,20.53
2019-02-26T17:10:46.342Z,21.33
2019-02-26T17:13:15.677Z,24.40
2019-02-26T17:15:44.722Z,20.60
2019-02-26T17:18:13.675Z,19.53
2019-02-26T17:20:42.702Z,25.60
2019-02-26T17:23:14.034Z,23.50
2019-02-26T17:25:44.311Z,22.70
2019-02-26T17:28:14.070Z,24.83
2019-02-26T17:30:43.452Z,21.70
2019-02-26T17:33:14.560Z,26.70
2019-02-26T17:35:44.008Z,25.63
2019-02-26T17:38:15.440Z,25.10
2019-02-26T17:40:46.041Z,21.20
2019-02-26T17:43:37.393Z,20.60
2019-02-26T17:46:07.849Z,22.33
2019-02-26T17:48:43.544Z,26.10
2019-02-26T17:51:09.598Z,29.70
2019-02-26T17:53:39.452Z,21.93
2019-02-26T17:56:08.502Z,24.17
2019-02-26T17:58:37.654Z,24.23
2019-02-26T18:01:07.102Z,28.97
2019-02-26T18:03:36.502Z,23.20
2019-02-26T18:06:05.907Z,25.87
2019-02-26T18:08:35.102Z,22.83
2019-02-26T18:11:04.669Z,26.40
2019-02-26T18:13:34.110Z,29.20
2019-02-26T18:16:09.249Z,28.07
2019-02-26T18:18:34.402Z,24.77
2019-02-26T18:21:05.990Z,24.33
2019-02-26T18:23:37.528Z,26.07
2019-02-26T18:26:05.737Z,21.70
2019-02-26T18:28:36.745Z,22.93
2019-02-26T18:31:05.920Z,23.00
2019-02-26T18:33:36.197Z,24.90
2019-02-26T18:36:06.217Z,27.83
2019-02-26T18:38:35.138Z,25.07
2019-02-26T18:41:04.084Z,25.97
2019-02-26T18:43:33.707Z,31.60
2019-02-26T18:46:02.750Z,35.50
2019-02-26T18:48:31.745Z,26.57
2019-02-26T18:51:02.515Z,26.70
2019-02-26T18:53:32.244Z,27.00
2019-02-26T18:56:04.115Z,32.20
2019-02-26T18:58:32.790Z,27.20
2019-02-26T19:01:01.680Z,25.53
2019-02-26T19:03:30.985Z,28.33
2019-02-26T19:05:59.959Z,31.50
2019-02-26T19:08:29.197Z,30.23
2019-02-26T19:10:58.474Z,25.23
2019-02-26T19:13:27.699Z,27.37
2019-02-26T19:15:56.638Z,25.63
2019-02-26T19:18:25.755Z,23.80
2019-02-26T19:20:54.708Z,23.97
2019-02-26T19:23:25.074Z,25.83
2019-02-26T19:25:54.074Z,26.37
2019-02-26T19:28:25.596Z,21.90
2019-02-26T19:30:54.207Z,30.43
2019-02-26T19:33:23.354Z,24.37
2019-02-26T19:35:52.230Z,24.63
2019-02-26T19:38:21.086Z,20.90
2019-02-26T19:40:50.310Z,20.57
2019-02-26T19:43:19.490Z,22.10
2019-02-26T19:45:48.886Z,20.20
2019-02-26T19:48:18.070Z,24.30
2019-02-26T19:50:48.675Z,25.20
2019-02-26T19:53:17.925Z,25.20
2019-02-26T19:55:49.731Z,22.87
2019-02-26T19:58:18.166Z,21.83
2019-02-26T20:00:47.087Z,23.33
2019-02-26T20:03:16.739Z,24.80
2019-02-26T20:05:47.152Z,28.23
2019-02-26T20:08:16.274Z,23.10
2019-02-26T20:10:48.003Z,19.30
2019-02-26T20:13:18.176Z,21.90
2019-02-26T20:15:47.667Z,22.13
2019-02-26T20:18:20.764Z,25.50
2019-02-26T20:20:47.375Z,21.73
2019-02-26T20:23:16.712Z,22.47
2019-02-26T20:25:46.906Z,22.80
2019-02-26T20:28:16.347Z,22.10
2019-02-26T20:30:45.719Z,22.63
2019-02-26T20:33:14.934Z,29.97
2019-02-26T20:35:45.372Z,23.10
2019-02-26T20:38:15.105Z,23.73
2019-02-26T20:40:43.931Z,23.20
2019-02-26T20:43:12.825Z,25.00
2019-02-26T20:45:42.134Z,23.07
2019-02-26T20:48:11.333Z,22.17
2019-02-26T20:50:40.260Z,18.37
2019-02-26T20:53:09.553Z,18.20
2019-02-26T20:55:38.481Z,21.77
2019-02-26T20:58:09.646Z,19.10
2019-02-26T21:00:42.398Z,19.90
2019-02-26T21:03:09.034Z,23.23
2019-02-26T21:05:37.889Z,20.23
2019-02-26T21:08:06.846Z,21.43
2019-02-26T21:10:35.773Z,24.40
2019-02-26T21:13:04.805Z,23.07
2019-02-26T21:15:33.829Z,22.20
2019-02-26T21:18:02.798Z,19.60
2019-02-26T21:20:31.657Z,20.23
2019-02-26T21:23:01.234Z,19.63
2019-02-26T21:25:30.177Z,18.50
2019-02-26T21:28:01.461Z,18.80
2019-02-26T21:30:29.821Z,21.83
2019-02-26T21:32:59.463Z,19.20
2019-02-26T21:35:28.763Z,16.73
2019-02-26T21:37:58.067Z,18.00
2019-02-26T21:40:27.265Z,21.97
2019-02-26T21:42:56.197Z,19.27
2019-02-26T21:45:25.130Z,19.20
2019-02-26T21:47:54.349Z,18.13
2019-02-26T21:50:23.286Z,22.13
2019-02-26T21:52:59.845Z,17.07
2019-02-26T21:55:22.843Z,20.93
2019-02-26T21:57:54.561Z,19.60
2019-02-26T22:00:22.422Z,18.73
2019-02-26T22:02:52.967Z,20.37
2019-02-26T22:05:21.969Z,17.53
2019-02-26T22:07:52.399Z,16.20
2019-02-26T22:10:22.016Z,19.97
2019-02-26T22:12:50.943Z,22.80
2019-02-26T22:15:19.914Z,22.80
2019-02-26T22:17:48.785Z,20.37
2019-02-26T22:20:23.604Z,16.53
2019-02-26T22:22:48.613Z,22.00
2019-02-26T22:25:17.829Z,18.90
2019-02-26T22:27:46.828Z,18.00
2019-02-26T22:30:21.540Z,18.30
2019-02-26T22:32:47.433Z,17.50
2019-02-26T22:35:16.801Z,16.00
2019-02-26T22:37:46.002Z,19.93
2019-02-26T22:40:15.025Z,20.80
2019-02-26T22:42:44.395Z,17.33
2019-02-26T22:45:13.742Z,18.53
2019-02-26T22:47:44.044Z,18.20
2019-02-26T22:50:13.643Z,17.23
2019-02-26T22:52:42.647Z,18.90
2019-02-26T22:55:16.063Z,15.73
2019-02-26T22:57:42.739Z,16.97
2019-02-26T23:00:54.140Z,16.50
2019-02-26T23:03:23.438Z,14.90
2019-02-26T23:05:52.475Z,18.93
2019-02-26T23:08:21.458Z,15.73
2019-02-26T23:10:51.299Z,12.70
2019-02-26T23:13:20.667Z,15.93
2019-02-26T23:15:49.947Z,15.20
2019-02-26T23:18:19.833Z,17.60
2019-02-26T23:20:49.154Z,15.97
2019-02-26T23:23:21.690Z,15.80
2019-02-26T23:25:49.413Z,15.30
2019-02-26T23:28:21.711Z,16.37
2019-02-26T23:30:50.252Z,20.80
2019-02-26T23:33:19.551Z,18.77
2019-02-26T23:35:49.039Z,19.13
2019-02-26T23:38:18.033Z,12.67
2019-02-26T23:40:47.122Z,17.03
2019-02-26T23:43:16.262Z,14.13
2019-02-26T23:45:45.458Z,15.17
2019-02-26T23:48:14.482Z,16.23
2019-02-26T23:50:47.083Z,13.30
2019-02-26T23:53:14.210Z,9.57
2019-02-26T23:55:46.442Z,13.03
2019-02-26T23:58:14.092Z,14.30
